createdAt,value
2023-03-26T00:01:19.227Z,99972.78
2023-03-26T00:03:47.060Z,99966.72
2023-03-26T00:06:15.841Z,99967.59
2023-03-26T00:08:44.929Z,99974.56
2023-03-26T00:11:13.247Z,99977.22
2023-03-26T00:13:41.457Z,99978.97
2023-03-26T00:16:08.219Z,99986.84
2023-03-26T00:18:34.889Z,99981.66
2023-03-26T00:21:03.968Z,99984.28
2023-03-26T00:23:32.323Z,99992.19
2023-03-26T00:25:58.934Z,99987.03
2023-03-26T00:28:26.311Z,99985.31
2023-03-26T00:31:07.478Z,99979.22
2023-03-26T00:33:38.280Z,99981.88
2023-03-26T00:36:14.633Z,99968.78
2023-03-26T00:38:42.117Z,99971.38
2023-03-26T00:41:17.334Z,99967.94
2023-03-26T00:43:46.664Z,99963.59
2023-03-26T00:46:13.468Z,99970.63
2023-03-26T00:48:45.440Z,99955.88
2023-03-26T00:51:15.521Z,99967.97
2023-03-26T00:53:43.996Z,99961.00
2023-03-26T00:56:10.754Z,99954.94
2023-03-26T00:58:37.604Z,99958.47
2023-03-26T01:01:10.460Z,99948.94
2023-03-26T01:03:38.658Z,99948.94
2023-03-26T01:06:08.023Z,99945.44
2023-03-26T01:08:50.300Z,99947.09
2023-03-26T01:11:31.960Z,99954.06
2023-03-26T01:14:04.717Z,99941.91
2023-03-26T01:16:39.067Z,99938.44
2023-03-26T01:19:13.001Z,99927.97
2023-03-26T01:21:39.721Z,99930.56
2023-03-26T01:24:08.364Z,99927.09
2023-03-26T01:26:59.793Z,99914.94
2023-03-26T01:29:29.132Z,99917.56
2023-03-26T01:32:12.012Z,99913.22
2023-03-26T01:34:49.636Z,99914.06
2023-03-26T01:37:33.999Z,99901.03
2023-03-26T01:40:23.436Z,99899.28
2023-03-26T01:43:11.309Z,99902.78
2023-03-26T01:45:41.319Z,99902.78
2023-03-26T01:48:07.938Z,99892.41
2023-03-26T01:50:34.434Z,99894.22
2023-03-26T01:53:01.173Z,99880.34
2023-03-26T01:55:49.478Z,99871.72
2023-03-26T01:58:21.061Z,99872.72
2023-03-26T02:01:02.115Z,99863.25
2023-03-26T02:03:38.938Z,99855.63
2023-03-26T02:06:18.944Z,99854.81
2023-03-26T02:08:52.824Z,99854.00
2023-03-26T02:11:20.095Z,99851.44
2023-03-26T02:13:46.853Z,99841.03
2023-03-26T02:16:16.533Z,99843.66
2023-03-26T02:18:45.044Z,99836.78
2023-03-26T02:21:21.320Z,99829.88
2023-03-26T02:23:50.760Z,99829.88
2023-03-26T02:26:19.926Z,99834.19
2023-03-26T02:28:46.389Z,99819.38
2023-03-26T02:31:13.846Z,99820.28
2023-03-26T02:33:40.513Z,99811.56
2023-03-26T02:36:08.589Z,99806.41
2023-03-26T02:38:35.621Z,99798.59
2023-03-26T02:41:02.822Z,99788.31
2023-03-26T02:43:29.609Z,99787.56
2023-03-26T02:45:56.749Z,99779.84
2023-03-26T02:48:23.713Z,99772.13
2023-03-26T02:50:54.240Z,99780.06
2023-03-26T02:53:30.793Z,99767.13
2023-03-26T02:55:58.574Z,99767.25
2023-03-26T02:58:26.416Z,99762.00
2023-03-26T03:00:56.234Z,99750.75
2023-03-26T03:03:27.119Z,99753.41
2023-03-26T03:05:55.066Z,99738.72
2023-03-26T03:08:26.191Z,99737.09
2023-03-26T03:11:13.283Z,99738.91
2023-03-26T03:13:41.791Z,99737.97
2023-03-26T03:16:09.105Z,99729.31
2023-03-26T03:18:36.413Z,99726.69
2023-03-26T03:21:03.951Z,99724.94
2023-03-26T03:23:30.434Z,99724.03
2023-03-26T03:25:57.667Z,99730.13
2023-03-26T03:28:25.348Z,99720.63
2023-03-26T03:30:57.490Z,99725.03
2023-03-26T03:33:24.456Z,99716.50
2023-03-26T03:35:51.110Z,99708.69
2023-03-26T03:38:19.191Z,99714.72
2023-03-26T03:40:45.783Z,99716.50
2023-03-26T03:43:12.212Z,99710.47
2023-03-26T03:45:38.694Z,99706.28
2023-03-26T03:48:05.420Z,99701.00
2023-03-26T03:50:34.338Z,99701.78
2023-03-26T03:53:02.876Z,99702.59
2023-03-26T03:55:30.031Z,99699.25
2023-03-26T03:57:58.256Z,99687.06
2023-03-26T04:00:24.701Z,99692.19
2023-03-26T04:02:54.317Z,99686.94
2023-03-26T04:05:21.262Z,99686.03
2023-03-26T04:07:47.777Z,99680.84
2023-03-26T04:10:15.303Z,99686.84
2023-03-26T04:12:41.800Z,99685.06
2023-03-26T04:15:08.361Z,99673.16
2023-03-26T04:17:42.758Z,99672.34
2023-03-26T04:20:15.830Z,99671.47
2023-03-26T04:22:43.708Z,99661.03
2023-03-26T04:25:11.298Z,99654.84
2023-03-26T04:27:38.812Z,99641.88
2023-03-26T04:30:07.202Z,99650.56
2023-03-26T04:32:34.554Z,99647.09
2023-03-26T04:35:04.009Z,99640.03
2023-03-26T04:37:39.712Z,99644.28
2023-03-26T04:40:10.317Z,99627.75
2023-03-26T04:42:41.617Z,99629.59
2023-03-26T04:45:09.288Z,99628.66
2023-03-26T04:47:37.002Z,99616.50
2023-03-26T04:50:09.307Z,99614.69
2023-03-26T04:52:36.617Z,99600.81
2023-03-26T04:55:03.635Z,99606.78
2023-03-26T04:57:46.230Z,99598.97
2023-03-26T05:00:16.694Z,99600.59
2023-03-26T05:02:43.641Z,99587.53
2023-03-26T05:05:10.720Z,99583.22
2023-03-26T05:07:37.580Z,99580.56
2023-03-26T05:10:05.489Z,99587.53
2023-03-26T05:12:31.898Z,99579.69
2023-03-26T05:14:58.334Z,99579.63
2023-03-26T05:17:25.877Z,99579.63
2023-03-26T05:19:52.477Z,99583.09
2023-03-26T05:22:19.310Z,99583.13
2023-03-26T05:24:46.161Z,99571.91
2023-03-26T05:27:22.745Z,99577.13
2023-03-26T05:29:49.292Z,99571.13
2023-03-26T05:32:15.903Z,99565.91
2023-03-26T05:34:42.390Z,99552.84
2023-03-26T05:37:09.307Z,99551.88
2023-03-26T05:39:35.999Z,99551.88
2023-03-26T05:42:02.675Z,99546.63
2023-03-26T05:44:29.264Z,99543.97
2023-03-26T05:46:55.802Z,99534.41
2023-03-26T05:49:22.272Z,99532.66
2023-03-26T05:51:48.688Z,99519.59
2023-03-26T05:54:15.295Z,99513.50
2023-03-26T05:56:41.741Z,99517.81
2023-03-26T05:59:08.854Z,99515.16
2023-03-26T06:01:35.307Z,99509.09
2023-03-26T06:04:02.029Z,99503.84
2023-03-26T06:06:28.511Z,99502.94
2023-03-26T06:09:01.139Z,99508.13
2023-03-26T06:11:29.947Z,99499.47
2023-03-26T06:13:56.448Z,99501.19
2023-03-26T06:16:27.831Z,99488.16
2023-03-26T06:18:56.623Z,99490.66
2023-03-26T06:21:27.634Z,99491.56
2023-03-26T06:23:54.969Z,99492.38
2023-03-26T06:26:21.790Z,99481.91
2023-03-26T06:28:48.709Z,99489.69
2023-03-26T06:31:17.219Z,99480.13
2023-03-26T06:33:43.706Z,99473.19
2023-03-26T06:36:10.553Z,99477.56
2023-03-26T06:38:37.049Z,99481.91
2023-03-26T06:41:05.403Z,99481.88
2023-03-26T06:43:33.741Z,99467.13
2023-03-26T06:46:01.642Z,99468.81
2023-03-26T06:48:28.437Z,99465.28
2023-03-26T06:50:55.436Z,99456.66
2023-03-26T06:53:22.072Z,99451.47
2023-03-26T06:55:48.590Z,99454.03
2023-03-26T06:58:16.671Z,99443.66
2023-03-26T07:00:43.319Z,99440.22
2023-03-26T07:03:11.241Z,99435.88
2023-03-26T07:05:38.454Z,99435.00
2023-03-26T07:08:04.958Z,99426.28
2023-03-26T07:10:31.837Z,99423.69
2023-03-26T07:12:58.325Z,99415.72
2023-03-26T07:15:24.797Z,99412.22
2023-03-26T07:17:51.448Z,99412.16
2023-03-26T07:20:17.933Z,99404.34
2023-03-26T07:22:44.647Z,99408.66
2023-03-26T07:25:14.210Z,99405.13
2023-03-26T07:27:52.241Z,99401.63
2023-03-26T07:30:34.314Z,99400.69
2023-03-26T07:33:06.700Z,99405.81
2023-03-26T07:35:50.713Z,99398.81
2023-03-26T07:38:23.216Z,99402.28
2023-03-26T07:40:55.997Z,99396.06
2023-03-26T07:43:51.077Z,99388.22
2023-03-26T07:46:23.926Z,99388.16
2023-03-26T07:48:51.921Z,99383.75
2023-03-26T07:51:19.182Z,99387.22
2023-03-26T07:53:46.058Z,99385.41
2023-03-26T07:56:37.731Z,99381.00
2023-03-26T07:59:18.662Z,99377.53
2023-03-26T08:02:05.481Z,99377.41
2023-03-26T08:04:41.162Z,99374.75
2023-03-26T08:07:10.895Z,99373.91
2023-03-26T08:09:49.417Z,99370.50
2023-03-26T08:12:27.568Z,99370.50
2023-03-26T08:14:56.893Z,99368.75
2023-03-26T08:17:39.266Z,99373.91
2023-03-26T08:20:31.094Z,99371.41
2023-03-26T08:23:09.462Z,99373.16
2023-03-26T08:26:12.846Z,99364.44
2023-03-26T08:29:04.147Z,99360.88
2023-03-26T08:31:36.129Z,99369.53
2023-03-26T08:34:02.769Z,99358.25
2023-03-26T08:36:29.572Z,99360.81
2023-03-26T08:38:57.495Z,99359.91
2023-03-26T08:41:59.363Z,99361.59
2023-03-26T08:45:04.673Z,99353.78
2023-03-26T08:48:09.147Z,99347.66
2023-03-26T08:50:43.567Z,99354.56
2023-03-26T08:53:43.755Z,99352.06
2023-03-26T08:56:28.896Z,99346.88
2023-03-26T08:59:32.560Z,99350.41
2023-03-26T09:02:20.689Z,99345.09
2023-03-26T09:05:15.223Z,99354.69
2023-03-26T09:08:11.014Z,99345.19
2023-03-26T09:10:52.035Z,99348.69
2023-03-26T09:13:56.068Z,99343.44
2023-03-26T09:17:07.284Z,99347.84
2023-03-26T09:20:04.578Z,99348.75
2023-03-26T09:22:52.896Z,99339.22
2023-03-26T09:25:42.199Z,99339.13
2023-03-26T09:28:33.773Z,99333.91
2023-03-26T09:31:06.324Z,99328.69
2023-03-26T09:33:56.298Z,99332.94
2023-03-26T09:36:43.390Z,99326.00
2023-03-26T09:39:16.893Z,99325.13
2023-03-26T09:42:05.007Z,99330.56
2023-03-26T09:44:51.073Z,99324.66
2023-03-26T09:47:23.507Z,99335.47
2023-03-26T09:50:08.847Z,99325.84
2023-03-26T09:52:41.324Z,99329.25
2023-03-26T09:55:33.657Z,99329.44
2023-03-26T09:58:06.188Z,99332.19
2023-03-26T10:00:53.946Z,99336.44
2023-03-26T10:03:48.747Z,99338.16
2023-03-26T10:06:27.998Z,99339.97
2023-03-26T10:09:01.469Z,99333.84
2023-03-26T10:11:47.269Z,99327.88
2023-03-26T10:14:28.945Z,99327.22
2023-03-26T10:17:20.304Z,99318.25
2023-03-26T10:20:00.774Z,99316.41
2023-03-26T10:22:43.700Z,99318.16
2023-03-26T10:25:33.659Z,99317.25
2023-03-26T10:28:03.065Z,99313.78
2023-03-26T10:30:46.888Z,99312.66
2023-03-26T10:33:30.716Z,99311.97
2023-03-26T10:36:31.446Z,99305.81
2023-03-26T10:39:36.693Z,99305.00
2023-03-26T10:42:23.989Z,99310.41
2023-03-26T10:45:29.913Z,99297.31
2023-03-26T10:48:24.386Z,99299.00
2023-03-26T10:51:07.381Z,99292.78
2023-03-26T10:54:19.055Z,99284.84
2023-03-26T10:56:47.886Z,99284.06
2023-03-26T10:59:16.328Z,99279.56
2023-03-26T11:02:00.992Z,99279.63
2023-03-26T11:05:02.073Z,99278.78
2023-03-26T11:07:43.741Z,99273.63
2023-03-26T11:10:16.851Z,99266.69
2023-03-26T11:13:35.299Z,99269.22
2023-03-26T11:16:06.222Z,99269.03
2023-03-26T11:19:13.183Z,99272.69
2023-03-26T11:21:53.749Z,99278.72
2023-03-26T11:24:38.512Z,99274.19
2023-03-26T11:27:18.956Z,99269.94
2023-03-26T11:29:59.162Z,99271.81
2023-03-26T11:32:42.173Z,99264.06
2023-03-26T11:35:39.746Z,99262.41
2023-03-26T11:38:37.222Z,99256.31
2023-03-26T11:41:11.170Z,99255.44
2023-03-26T11:43:37.617Z,99253.69
2023-03-26T11:46:13.206Z,99261.50
2023-03-26T11:48:57.593Z,99255.41
2023-03-26T11:51:34.354Z,99258.22
2023-03-26T11:54:05.931Z,99262.25
2023-03-26T11:56:37.636Z,99257.94
2023-03-26T11:59:26.070Z,99263.13
2023-03-26T12:01:58.058Z,99256.31
2023-03-26T12:04:33.717Z,99265.78
2023-03-26T12:07:15.837Z,99257.88
2023-03-26T12:09:57.881Z,99260.72
2023-03-26T12:12:47.207Z,99265.88
2023-03-26T12:15:16.127Z,99260.53
2023-03-26T12:17:43.213Z,99257.22
2023-03-26T12:20:42.557Z,99260.53
2023-03-26T12:23:42.449Z,99256.13
2023-03-26T12:26:36.625Z,99249.81
2023-03-26T12:29:15.297Z,99252.97
2023-03-26T12:31:48.355Z,99256.47
2023-03-26T12:34:18.315Z,99261.16
2023-03-26T12:36:55.314Z,99254.97
2023-03-26T12:40:08.661Z,99260.06
2023-03-26T12:44:55.267Z,99259.03
2023-03-26T12:45:32.178Z,99257.13
2023-03-26T12:48:03.903Z,99262.13
2023-03-26T12:50:44.387Z,99264.31
2023-03-26T12:53:41.438Z,99262.56
2023-03-26T12:56:07.822Z,99257.84
2023-03-26T12:58:54.994Z,99261.25
2023-03-26T13:01:43.525Z,99266.63
2023-03-26T13:04:23.109Z,99269.44
2023-03-26T13:07:01.598Z,99269.44
2023-03-26T13:09:54.113Z,99271.09
2023-03-26T13:12:41.008Z,99276.56
2023-03-26T13:15:22.639Z,99275.78
2023-03-26T13:18:16.597Z,99277.66
2023-03-26T13:21:10.272Z,99272.63
2023-03-26T13:23:59.885Z,99281.19
2023-03-26T13:26:54.369Z,99279.41
2023-03-26T13:29:28.569Z,99279.28
2023-03-26T13:32:36.001Z,99277.53
2023-03-26T13:35:02.452Z,99274.88
2023-03-26T13:37:37.483Z,99279.97
2023-03-26T13:40:22.289Z,99276.25
2023-03-26T13:43:26.340Z,99284.88
2023-03-26T13:46:17.344Z,99281.25
2023-03-26T13:49:07.058Z,99278.28
2023-03-26T13:51:37.285Z,99277.44
2023-03-26T13:54:07.884Z,99287.78
2023-03-26T13:56:43.269Z,99285.66
2023-03-26T13:59:21.085Z,99295.38
2023-03-26T14:01:54.427Z,99295.22
2023-03-26T14:04:50.924Z,99296.81
2023-03-26T14:07:44.324Z,99296.50
2023-03-26T14:10:21.266Z,99301.72
2023-03-26T14:13:07.345Z,99307.06
2023-03-26T14:15:58.727Z,99307.84
2023-03-26T14:18:44.468Z,99313.88
2023-03-26T14:21:19.904Z,99318.34
2023-03-26T14:24:04.884Z,99317.38
2023-03-26T14:27:05.523Z,99316.50
2023-03-26T14:29:56.759Z,99324.00
2023-03-26T14:32:36.093Z,99323.88
2023-03-26T14:35:28.292Z,99330.94
2023-03-26T14:38:03.811Z,99333.63
2023-03-26T14:40:33.284Z,99333.38
2023-03-26T14:43:24.893Z,99338.69
2023-03-26T14:46:16.330Z,99340.59
2023-03-26T14:48:52.231Z,99352.38
2023-03-26T14:51:23.278Z,99358.47
2023-03-26T14:54:21.768Z,99348.75
2023-03-26T14:57:03.515Z,99363.81
2023-03-26T15:00:07.226Z,99368.03
2023-03-26T15:03:11.831Z,99374.13
2023-03-26T15:05:57.170Z,99370.00
2023-03-26T15:08:36.299Z,99377.69
2023-03-26T15:11:21.542Z,99378.00
2023-03-26T15:13:59.586Z,99378.94
2023-03-26T15:16:31.978Z,99384.25
2023-03-26T15:19:27.254Z,99387.78
2023-03-26T15:21:56.631Z,99402.69
2023-03-26T15:24:46.306Z,99397.59
2023-03-26T15:27:27.806Z,99405.59
2023-03-26T15:30:22.362Z,99406.50
2023-03-26T15:33:05.231Z,99407.22
2023-03-26T15:35:50.013Z,99409.84
2023-03-26T15:38:46.399Z,99415.84
2023-03-26T15:41:19.249Z,99414.22
2023-03-26T15:44:23.670Z,99417.84
2023-03-26T15:46:58.221Z,99429.47
2023-03-26T15:49:42.592Z,99432.13
2023-03-26T15:52:22.044Z,99432.09
2023-03-26T15:55:03.960Z,99431.00
2023-03-26T15:57:56.985Z,99435.59
2023-03-26T16:00:25.960Z,99443.41
2023-03-26T16:03:12.106Z,99448.66
2023-03-26T16:06:15.791Z,99446.28
2023-03-26T16:08:54.217Z,99453.19
2023-03-26T16:11:48.983Z,99465.50
2023-03-26T16:14:46.803Z,99467.28
2023-03-26T16:17:23.610Z,99457.66
2023-03-26T16:19:52.002Z,99464.81
2023-03-26T16:22:42.526Z,99486.44
2023-03-26T16:25:27.963Z,99485.63
2023-03-26T16:28:32.516Z,99488.31
2023-03-26T16:31:23.653Z,99487.41
2023-03-26T16:34:19.347Z,99491.03
2023-03-26T16:36:49.893Z,99502.16
2023-03-26T16:39:39.739Z,99508.41
2023-03-26T16:42:15.615Z,99510.19
2023-03-26T16:45:00.894Z,99525.13
2023-03-26T16:47:47.648Z,99517.47
2023-03-26T16:50:29.900Z,99528.75
2023-03-26T16:53:41.622Z,99533.19
2023-03-26T16:56:33.391Z,99539.50
2023-03-26T16:59:09.326Z,99548.22
2023-03-26T17:01:48.254Z,99553.50
2023-03-26T17:04:26.221Z,99556.19
2023-03-26T17:07:08.668Z,99554.41
2023-03-26T17:10:00.564Z,99565.72
2023-03-26T17:12:44.229Z,99574.59
2023-03-26T17:15:22.109Z,99586.81
2023-03-26T17:18:16.752Z,99590.41
2023-03-26T17:21:08.322Z,99593.09
2023-03-26T17:23:41.208Z,99605.41
2023-03-26T17:26:21.879Z,99610.47
2023-03-26T17:28:57.153Z,99623.59
2023-03-26T17:31:40.207Z,99634.16
2023-03-26T17:34:33.160Z,99642.84
2023-03-26T17:37:04.672Z,99642.03
2023-03-26T17:39:51.125Z,99652.38
2023-03-26T17:42:26.794Z,99662.88
2023-03-26T17:45:01.702Z,99669.84
2023-03-26T17:48:05.378Z,99676.72
2023-03-26T17:50:42.031Z,99681.16
2023-03-26T17:53:19.758Z,99685.47
2023-03-26T17:55:50.067Z,99681.97
2023-03-26T17:58:21.004Z,99690.63
2023-03-26T18:00:52.816Z,99688.91
2023-03-26T18:03:49.426Z,99695.88
2023-03-26T18:06:51.648Z,99701.22
2023-03-26T18:09:48.106Z,99705.59
2023-03-26T18:12:33.097Z,99720.38
2023-03-26T18:15:11.796Z,99723.91
2023-03-26T18:17:47.078Z,99722.25
2023-03-26T18:20:26.339Z,99729.13
2023-03-26T18:22:53.299Z,99733.44
2023-03-26T18:25:28.625Z,99739.53
2023-03-26T18:27:56.210Z,99749.88
2023-03-26T18:30:24.507Z,99756.09
2023-03-26T18:33:00.732Z,99751.81
2023-03-26T18:35:38.722Z,99770.13
2023-03-26T18:38:05.891Z,99776.97
2023-03-26T18:40:40.280Z,99786.59
2023-03-26T18:43:25.367Z,99784.06
2023-03-26T18:45:59.182Z,99794.47
2023-03-26T18:48:28.292Z,99801.50
2023-03-26T18:51:00.300Z,99818.97
2023-03-26T18:53:38.480Z,99833.88
2023-03-26T18:56:19.457Z,99837.44
2023-03-26T18:58:51.654Z,99843.44
2023-03-26T19:01:25.835Z,99847.84
2023-03-26T19:03:53.784Z,99860.06
2023-03-26T19:06:21.022Z,99850.56
2023-03-26T19:08:50.325Z,99860.09
2023-03-26T19:11:17.707Z,99862.81
2023-03-26T19:13:49.659Z,99860.25
2023-03-26T19:16:24.435Z,99868.13
2023-03-26T19:18:51.322Z,99876.84
2023-03-26T19:21:20.201Z,99891.59
2023-03-26T19:23:47.732Z,99889.03
2023-03-26T19:26:15.301Z,99902.94
2023-03-26T19:28:51.463Z,99906.41
2023-03-26T19:31:36.336Z,99901.28
2023-03-26T19:34:13.638Z,99906.44
2023-03-26T19:37:02.021Z,99912.56
2023-03-26T19:39:42.769Z,99924.84
2023-03-26T19:42:16.242Z,99928.31
2023-03-26T19:44:43.530Z,99929.19
2023-03-26T19:47:35.396Z,99932.59
2023-03-26T19:50:28.740Z,99943.97
2023-03-26T19:53:32.396Z,99942.25
2023-03-26T19:56:04.454Z,99956.19
2023-03-26T19:58:32.157Z,99963.16
2023-03-26T20:00:59.102Z,99954.53
2023-03-26T20:03:29.257Z,99966.69
2023-03-26T20:05:56.198Z,99961.50
2023-03-26T20:08:27.016Z,99973.66
2023-03-26T20:10:56.474Z,99978.94
2023-03-26T20:13:23.188Z,99980.66
2023-03-26T20:16:05.727Z,99985.88
2023-03-26T20:18:33.843Z,99999.78
2023-03-26T20:21:00.533Z,100005.03
2023-03-26T20:23:28.829Z,100012.84
2023-03-26T20:25:55.781Z,100012.88
2023-03-26T20:28:24.281Z,100025.06
2023-03-26T20:30:54.379Z,100026.88
2023-03-26T20:33:27.733Z,100032.97
2023-03-26T20:35:56.733Z,100045.16
2023-03-26T20:38:36.695Z,100048.66
2023-03-26T20:41:07.192Z,100040.88
2023-03-26T20:43:33.664Z,100051.34
2023-03-26T20:46:00.569Z,100056.53
2023-03-26T20:48:27.123Z,100056.56
2023-03-26T20:50:54.118Z,100063.50
2023-03-26T20:53:20.714Z,100073.09
2023-03-26T20:55:48.321Z,100074.88
2023-03-26T20:58:31.530Z,100076.56
2023-03-26T21:01:01.243Z,100092.19
2023-03-26T21:03:27.961Z,100091.34
2023-03-26T21:05:54.586Z,100092.25
2023-03-26T21:08:22.941Z,100113.03
2023-03-26T21:10:49.704Z,100118.25
2023-03-26T21:13:22.210Z,100112.25
2023-03-26T21:15:50.932Z,100124.41
2023-03-26T21:18:17.722Z,100124.41
2023-03-26T21:21:05.177Z,100138.28
2023-03-26T21:23:46.283Z,100146.09
2023-03-26T21:26:28.402Z,100147.84
2023-03-26T21:28:55.015Z,100146.13
2023-03-26T21:31:24.632Z,100166.91
2023-03-26T21:33:51.898Z,100166.94
2023-03-26T21:36:19.882Z,100166.06
2023-03-26T21:38:46.882Z,100186.88
2023-03-26T21:41:30.893Z,100193.81
2023-03-26T21:43:59.729Z,100192.97
2023-03-26T21:46:27.012Z,100197.31
2023-03-26T21:48:53.743Z,100205.09
2023-03-26T21:51:21.155Z,100209.47
2023-03-26T21:53:48.902Z,100210.34
2023-03-26T21:56:50.361Z,100220.72
2023-03-26T21:59:32.121Z,100225.03
2023-03-26T22:02:19.241Z,100226.81
2023-03-26T22:05:04.082Z,100234.59
2023-03-26T22:07:33.205Z,100243.28
2023-03-26T22:09:59.676Z,100259.72
2023-03-26T22:12:26.490Z,100261.44
2023-03-26T22:14:53.325Z,100266.66
2023-03-26T22:17:19.901Z,100270.97
2023-03-26T22:19:46.355Z,100277.88
2023-03-26T22:22:12.864Z,100276.16
2023-03-26T22:24:39.339Z,100294.31
2023-03-26T22:27:06.248Z,100294.28
2023-03-26T22:29:33.539Z,100296.06
2023-03-26T22:32:00.043Z,100305.53
2023-03-26T22:34:26.548Z,100309.00
2023-03-26T22:36:53.277Z,100314.19
2023-03-26T22:39:19.773Z,100316.78
2023-03-26T22:41:46.206Z,100328.00
2023-03-26T22:44:19.791Z,100325.38
2023-03-26T22:46:49.289Z,100339.22
2023-03-26T22:49:16.458Z,100343.53
2023-03-26T22:51:43.055Z,100351.31
2023-03-26T22:54:09.730Z,100353.00
2023-03-26T22:56:36.999Z,100357.31
2023-03-26T22:59:03.763Z,100357.34
2023-03-26T23:01:30.532Z,100359.06
2023-03-26T23:03:57.887Z,100367.66
2023-03-26T23:06:25.048Z,100375.44
2023-03-26T23:08:51.570Z,100373.72
2023-03-26T23:11:20.444Z,100384.03
2023-03-26T23:13:47.903Z,100391.81
2023-03-26T23:16:16.178Z,100392.69
2023-03-26T23:18:42.917Z,100403.00
2023-03-26T23:21:14.870Z,100409.91
2023-03-26T23:23:41.401Z,100415.06
2023-03-26T23:26:08.526Z,100417.63
2023-03-26T23:28:35.630Z,100418.50
2023-03-26T23:31:05.383Z,100420.22
2023-03-26T23:33:37.769Z,100428.84
2023-03-26T23:36:10.644Z,100430.56
2023-03-26T23:38:43.788Z,100444.34
2023-03-26T23:41:15.135Z,100444.34
2023-03-26T23:43:54.450Z,100447.78
2023-03-26T23:46:26.019Z,100446.06
2023-03-26T23:48:52.921Z,100458.19
2023-03-26T23:51:20.945Z,100474.53
2023-03-26T23:53:49.052Z,100478.84
2023-03-26T23:56:16.238Z,100486.56
2023-03-26T23:58:42.999Z,100483.97
